< < Back
Terminal Aerodrome Forecast


Current Version              Previous Versions:   1  2  3  4  5  6  7  8  9  

Terminal Aerodrome Forecast

406
FTUS44 KBMX 011734
TAFBHM
TAF
KBHM 011734Z 0118/0218 08005KT P6SM SCT050 SCT250
     FM020200 VRB03KT P6SM SCT250=

Latest METAR

852
SAUS70 KWBC 020600 RRB
MTRBHM
METAR KBHM 020553Z 00000KT 10SM CLR 23/22 A3011 RMK AO2 SLP186 T02330217
10289 20228 403170206 55001


USA.gov is the U.S. government's official web portal to all federal, state and local government web resources and services.